Time;durP1;ratioP1;P1;durP2;ratioP2;P2;SDS_P1;SDS_P2;PMS_P1;PMS_P2;Temp;Humidity;BMP_temperature;BMP_pressure;BME280_temperature;BME280_humidity;BME280_pressure;Samples;Min_cycle;Max_cycle;Signal;HPM_P1;HPM_P2
2021/07/13 00:01:12;;;;;;;;;;;;;;;29.74;36.99;96544.97;5023703;28;1657;-85
2021/07/13 00:03:37;;;;;;;;;;;;;;;29.85;36.78;96543.75;5037931;28;1333;-85
2021/07/13 00:06:03;;;;;;;;;;;;;;;30.11;36.27;96543.50;5039334;28;1268;-86
2021/07/13 00:08:28;;;;;;;;;;;;;;;29.88;36.52;96540.75;5039010;28;1211;-85
2021/07/13 00:10:53;;;;;;;;;;;;;;;29.99;36.24;96535.03;5039144;28;1617;-84
2021/07/13 00:13:18;;;;;;;;;;;;;;;29.94;36.26;96529.41;5027215;28;1914;-84
2021/07/13 00:15:44;;;;;;;;;;;;;;;29.63;37.22;96529.41;5029304;28;1181;-85
2021/07/13 00:18:09;;;;;;;;;;;;;;;30.11;36.17;96533.69;5039423;28;1381;-85
2021/07/13 00:20:34;;;;;;;;;;;;;;;30.06;36.30;96530.69;5022479;28;1576;-85
2021/07/13 00:22:59;;;;;;;;;;;;;;;30.03;36.37;96537.19;5028835;28;1355;-86
2021/07/13 00:25:25;;;;;;;;;;;;;;;29.88;36.43;96541.59;5024591;28;1573;-86
2021/07/13 00:27:50;;;;;;;;;;;;;;;30.17;35.95;96548.94;5027061;28;1386;-85
2021/07/13 00:30:16;;;;;;;;;;;;;;;29.58;37.21;96540.53;5039057;28;1106;-85
2021/07/13 00:32:41;;;;;;;;;;;;;;;29.94;36.53;96537.38;5028117;28;1969;-84
2021/07/13 00:35:07;;;;;;;;;;;;;;;30.22;35.98;96543.09;5026708;28;1153;-84
2021/07/13 00:37:32;;;;;;;;;;;;;;;29.84;36.43;96542.91;5038948;28;1318;-84
2021/07/13 00:39:57;;;;;;;;;;;;;;;30.13;36.25;96541.50;5038419;28;1597;-85
2021/07/13 00:42:23;;;;;;;;;;;;;;;29.94;36.29;96540.91;5039495;28;1188;-84
2021/07/13 00:44:48;;;;;;;;;;;;;;;29.85;36.70;96531.28;5040038;28;1073;-84
2021/07/13 00:47:15;;;;;;;;;;;;;;;30.05;36.18;96533.53;5035722;28;1545;-84
2021/07/13 00:49:44;;;;;;;;;;;;;;;29.92;36.46;96532.25;5028721;28;1375;-85
2021/07/13 00:52:10;;;;;;;;;;;;;;;29.98;36.37;96536.88;5016942;28;1304;-85
2021/07/13 00:54:35;;;;;;;;;;;;;;;29.62;37.19;96527.72;5036851;28;1898;-85
2021/07/13 00:57:04;;;;;;;;;;;;;;;29.86;36.67;96535.63;5032437;28;1292;-85
2021/07/13 00:59:29;;;;;;;;;;;;;;;29.53;37.23;96532.22;5007179;28;1659;-85
2021/07/13 01:01:54;;;;;;;;;;;;;;;29.75;36.58;96534.16;5035199;28;1446;-84
2021/07/13 01:04:20;;;;;;;;;;;;;;;30.02;36.11;96529.41;5038346;28;1337;-85
2021/07/13 01:06:45;;;;;;;;;;;;;;;29.98;36.22;96522.75;5024469;28;1485;-84
2021/07/13 01:09:14;;;;;;;;;;;;;;;29.98;36.41;96523.59;5039466;28;1577;-85
2021/07/13 01:11:59;;;;;;;;;;;;;;;29.81;36.54;96513.22;5014292;28;1192;-85
2021/07/13 01:14:27;;;;;;;;;;;;;;;29.86;36.41;96503.72;5032134;28;1910;-85
2021/07/13 01:16:52;;;;;;;;;;;;;;;29.48;37.24;96500.03;5029987;28;1367;-85
2021/07/13 01:19:26;;;;;;;;;;;;;;;29.88;36.57;96503.53;5039719;28;1551;-85
2021/07/13 01:21:51;;;;;;;;;;;;;;;29.98;36.37;96520.09;5042960;28;1303;-84
2021/07/13 01:24:22;;;;;;;;;;;;;;;30.16;35.92;96509.22;5039130;28;1581;-85
2021/07/13 01:26:58;;;;;;;;;;;;;;;29.95;36.29;96507.16;5030675;28;1249;-84
2021/07/13 01:29:23;;;;;;;;;;;;;;;30.05;36.31;96507.78;5013782;28;1236;-85
2021/07/13 01:31:48;;;;;;;;;;;;;;;29.84;36.74;96499.56;5026371;28;1676;-85
2021/07/13 01:34:14;;;;;;;;;;;;;;;30.04;36.43;96503.47;5031501;28;1902;-86
2021/07/13 01:36:41;;;;;;;;;;;;;;;30.18;35.80;96502.75;5031767;28;1321;-85
2021/07/13 01:39:06;;;;;;;;;;;;;;;30.05;36.30;96504.28;5014586;28;1546;-85
2021/07/13 01:41:31;;;;;;;;;;;;;;;30.09;36.21;96497.63;5013941;28;1495;-85
2021/07/13 01:43:57;;;;;;;;;;;;;;;30.22;35.72;96496.06;5031409;28;1105;-85
2021/07/13 01:46:22;;;;;;;;;;;;;;;29.76;36.74;96495.13;5038123;28;1299;-85
2021/07/13 01:48:47;;;;;;;;;;;;;;;30.05;36.31;96486.50;5026436;28;1571;-84
2021/07/13 01:51:12;;;;;;;;;;;;;;;29.89;36.42;96490.06;5031479;28;1259;-85
2021/07/13 01:53:38;;;;;;;;;;;;;;;30.21;36.05;96488.25;5022655;28;1905;-85
2021/07/13 01:56:03;;;;;;;;;;;;;;;29.94;36.38;96490.38;5039715;28;1796;-85
2021/07/13 01:58:29;;;;;;;;;;;;;;;29.95;36.28;96491.22;5029547;28;1303;-85
2021/07/13 02:00:55;;;;;;;;;;;;;;;30.15;36.13;96483.63;5040816;28;1176;-85
2021/07/13 02:03:24;;;;;;;;;;;;;;;29.81;36.77;96487.47;5029947;28;1298;-84
2021/07/13 02:05:50;;;;;;;;;;;;;;;30.03;35.99;96477.88;5019302;28;1616;-85
2021/07/13 02:08:15;;;;;;;;;;;;;;;30.03;36.17;96470.72;5028231;28;1284;-85
2021/07/13 02:10:40;;;;;;;;;;;;;;;29.90;36.49;96474.94;5011870;28;1541;-85
2021/07/13 02:13:07;;;;;;;;;;;;;;;30.07;35.93;96462.38;5032203;28;1969;-85
2021/07/13 02:15:32;;;;;;;;;;;;;;;30.07;36.08;96465.88;5030831;28;1328;-85
2021/07/13 02:17:58;;;;;;;;;;;;;;;30.02;36.12;96469.06;5040573;28;1547;-84
2021/07/13 02:20:24;;;;;;;;;;;;;;;29.69;37.06;96468.41;5029432;28;1263;-85
2021/07/13 02:22:49;;;;;;;;;;;;;;;30.10;36.08;96472.69;5029403;28;1179;-85
2021/07/13 02:25:15;;;;;;;;;;;;;;;29.99;36.27;96479.22;5026959;28;1567;-85
2021/07/13 02:28:00;;;;;;;;;;;;;;;29.97;36.41;96473.25;5031604;28;1216;-85
2021/07/13 02:30:25;;;;;;;;;;;;;;;30.04;35.98;96471.56;5040024;28;1208;-85
2021/07/13 02:32:58;;;;;;;;;;;;;;;30.11;36.19;96461.91;5012929;28;1953;-86
2021/07/13 02:35:26;;;;;;;;;;;;;;;30.07;36.06;96462.38;5027446;28;1481;-85
2021/07/13 02:37:51;;;;;;;;;;;;;;;29.97;36.26;96462.63;5030579;28;1326;-85
2021/07/13 02:40:16;;;;;;;;;;;;;;;30.10;36.27;96454.06;5022159;28;1536;-86
2021/07/13 02:42:45;;;;;;;;;;;;;;;29.94;36.30;96453.19;5029089;28;1145;-86
2021/07/13 02:45:10;;;;;;;;;;;;;;;29.75;36.67;96451.75;5013378;28;1329;-85
2021/07/13 02:47:35;;;;;;;;;;;;;;;30.07;36.20;96457.91;5040983;28;1628;-85
2021/07/13 02:50:01;;;;;;;;;;;;;;;30.07;36.27;96454.41;5031208;28;1117;-85
2021/07/13 02:52:29;;;;;;;;;;;;;;;29.99;36.26;96444.66;5012789;28;1311;-85
2021/07/13 02:54:55;;;;;;;;;;;;;;;29.93;36.29;96448.84;5026035;28;1902;-85
2021/07/13 02:57:21;;;;;;;;;;;;;;;29.93;36.29;96453.31;5026273;28;1516;-85
2021/07/13 02:59:46;;;;;;;;;;;;;;;29.85;36.55;96456.03;5029498;28;1394;-86
2021/07/13 03:02:12;;;;;;;;;;;;;;;30.00;36.36;96449.78;5025220;28;1684;-85
2021/07/13 03:04:37;;;;;;;;;;;;;;;29.97;36.40;96447.50;5024315;28;1571;-85
2021/07/13 03:07:03;;;;;;;;;;;;;;;29.93;36.42;96450.66;5030278;28;1271;-85
2021/07/13 03:09:28;;;;;;;;;;;;;;;29.99;36.20;96442.00;5025918;28;1544;-85
2021/07/13 03:11:53;;;;;;;;;;;;;;;29.81;36.78;96447.59;5012309;28;1387;-85
2021/07/13 03:14:18;;;;;;;;;;;;;;;29.88;36.60;96461.84;5028261;28;1909;-84
2021/07/13 03:16:44;;;;;;;;;;;;;;;30.02;36.13;96462.94;5029798;28;1292;-85
2021/07/13 03:19:09;;;;;;;;;;;;;;;30.02;36.20;96462.94;5025853;28;1539;-84
2021/07/13 03:21:35;;;;;;;;;;;;;;;30.19;36.09;96461.03;5020626;28;1488;-85
2021/07/13 03:24:01;;;;;;;;;;;;;;;30.23;35.82;96457.00;5025963;28;1581;-84
2021/07/13 03:26:27;;;;;;;;;;;;;;;30.14;36.02;96456.22;5013081;28;1618;-84
2021/07/13 03:28:52;;;;;;;;;;;;;;;29.93;36.52;96448.84;5030080;28;1299;-85
2021/07/13 03:31:17;;;;;;;;;;;;;;;30.13;35.76;96443.94;5030725;28;1133;-84
2021/07/13 03:33:43;;;;;;;;;;;;;;;30.09;36.09;96442.63;5023493;28;1957;-84
2021/07/13 03:36:08;;;;;;;;;;;;;;;30.11;35.89;96445.94;5029973;28;1197;-85
2021/07/13 03:38:33;;;;;;;;;;;;;;;30.12;36.10;96452.91;5028663;28;1680;-85
2021/07/13 03:40:58;;;;;;;;;;;;;;;30.07;36.14;96451.75;5040348;28;1506;-85
2021/07/13 03:43:28;;;;;;;;;;;;;;;30.18;35.91;96456.72;5028983;28;1299;-84
2021/07/13 03:45:54;;;;;;;;;;;;;;;29.95;36.44;96448.69;5027421;28;1232;-84
2021/07/13 03:48:20;;;;;;;;;;;;;;;30.08;36.14;96456.91;5026168;28;1585;-85
2021/07/13 03:50:45;;;;;;;;;;;;;;;30.02;36.24;96455.78;5030133;28;1162;-85
2021/07/13 03:53:11;;;;;;;;;;;;;;;30.05;36.06;96449.28;5039190;28;1941;-84
2021/07/13 03:55:36;;;;;;;;;;;;;;;30.12;35.79;96454.75;5023752;28;1599;-85
2021/07/13 03:58:01;;;;;;;;;;;;;;;29.94;36.41;96449.66;5038966;28;1325;-84
2021/07/13 04:00:32;;;;;;;;;;;;;;;30.19;35.84;96442.41;5041823;28;1113;-85
2021/07/13 04:02:57;;;;;;;;;;;;;;;30.05;36.35;96451.94;5037403;28;1652;-85
2021/07/13 04:05:22;;;;;;;;;;;;;;;29.91;36.27;96450.03;5033025;28;1817;-85
2021/07/13 04:07:47;;;;;;;;;;;;;;;30.11;35.94;96448.59;5038015;28;1327;-85
2021/07/13 04:10:13;;;;;;;;;;;;;;;30.25;35.60;96447.81;5032984;28;1623;-85
2021/07/13 04:12:38;;;;;;;;;;;;;;;29.89;36.63;96446.72;5027696;28;1335;-85
2021/07/13 04:15:04;;;;;;;;;;;;;;;30.02;36.22;96442.50;5024646;28;1903;-85
2021/07/13 04:17:29;;;;;;;;;;;;;;;30.03;36.10;96438.00;5037379;28;1534;-84
2021/07/13 04:19:55;;;;;;;;;;;;;;;30.05;36.22;96435.97;5037991;28;1575;-85
2021/07/13 04:22:20;;;;;;;;;;;;;;;29.62;37.13;96430.22;5029553;28;1124;-85
2021/07/13 04:24:45;;;;;;;;;;;;;;;30.00;36.25;96433.00;5039985;28;1479;-85
2021/07/13 04:27:10;;;;;;;;;;;;;;;30.00;36.39;96428.53;5044606;28;1239;-85
2021/07/13 04:29:35;;;;;;;;;;;;;;;29.99;36.18;96428.69;5043804;28;1440;-86
2021/07/13 04:32:01;;;;;;;;;;;;;;;30.05;36.06;96416.53;5040908;28;1605;-85
2021/07/13 04:34:26;;;;;;;;;;;;;;;30.06;36.04;96418.19;5012607;28;1953;-86
2021/07/13 04:36:51;;;;;;;;;;;;;;;30.07;35.87;96420.66;5031429;28;1363;-85
2021/07/13 04:39:16;;;;;;;;;;;;;;;30.13;35.70;96420.00;5040098;28;1557;-85
2021/07/13 04:41:42;;;;;;;;;;;;;;;29.89;36.55;96420.97;5043837;28;1124;-85
2021/07/13 04:44:07;;;;;;;;;;;;;;;30.14;35.97;96411.00;5041938;28;1329;-85
2021/07/13 04:46:32;;;;;;;;;;;;;;;30.22;35.81;96415.44;5029651;28;1664;-85
2021/07/13 04:48:57;;;;;;;;;;;;;;;30.00;36.24;96404.59;5041856;28;1101;-85
2021/07/13 04:51:23;;;;;;;;;;;;;;;29.88;36.55;96397.22;5043625;28;1235;-86
2021/07/13 04:53:48;;;;;;;;;;;;;;;29.86;36.24;96396.56;5032947;28;1918;-85
2021/07/13 04:56:13;;;;;;;;;;;;;;;30.02;36.31;96394.63;5024448;28;2001;-84
2021/07/13 04:58:38;;;;;;;;;;;;;;;29.91;36.27;96396.84;5042626;28;1390;-85
2021/07/13 05:01:04;;;;;;;;;;;;;;;30.06;36.22;96395.09;5041097;28;1432;-85
2021/07/13 05:03:29;;;;;;;;;;;;;;;30.03;36.04;96392.81;5040241;28;1700;-85
2021/07/13 05:05:54;;;;;;;;;;;;;;;29.89;36.40;96386.41;5040710;28;1094;-85
2021/07/13 05:08:22;;;;;;;;;;;;;;;30.03;36.23;96390.97;5041488;28;1341;-85
2021/07/13 05:10:47;;;;;;;;;;;;;;;29.87;36.55;96384.94;5028817;28;1646;-85
2021/07/13 05:13:12;;;;;;;;;;;;;;;29.92;36.00;96395.84;5041985;28;1894;-85
2021/07/13 05:15:39;;;;;;;;;;;;;;;29.98;36.43;96390.66;5030199;28;1185;-85
2021/07/13 05:18:06;;;;;;;;;;;;;;;29.97;36.01;96391.66;5008931;28;1514;-85
2021/07/13 05:20:31;;;;;;;;;;;;;;;29.86;36.68;96391.22;5014773;28;1189;-85
2021/07/13 05:23:06;;;;;;;;;;;;;;;30.03;36.00;96398.94;5031223;28;1299;-85
2021/07/13 05:25:31;;;;;;;;;;;;;;;30.00;36.17;96398.44;5040599;28;1631;-85
2021/07/13 05:27:56;;;;;;;;;;;;;;;30.27;35.63;96397.97;5029370;28;1313;-85
2021/07/13 05:30:23;;;;;;;;;;;;;;;29.91;36.43;96400.34;5042740;28;1188;-85
2021/07/13 05:32:50;;;;;;;;;;;;;;;29.81;36.48;96396.28;5010659;28;1627;-85
2021/07/13 05:35:15;;;;;;;;;;;;;;;29.89;36.30;96391.72;5012663;28;1910;-84
2021/07/13 05:37:41;;;;;;;;;;;;;;;29.74;36.79;96396.13;5041034;28;1382;-85
2021/07/13 05:40:06;;;;;;;;;;;;;;;29.86;36.45;96385.91;5040290;28;1593;-85
2021/07/13 05:42:31;;;;;;;;;;;;;;;29.77;36.65;96387.81;5031684;28;1204;-85
2021/07/13 05:44:57;;;;;;;;;;;;;;;29.93;36.36;96390.34;5030391;28;1340;-85
2021/07/13 05:47:22;;;;;;;;;;;;;;;30.11;36.02;96382.13;5040018;28;1566;-85
2021/07/13 05:49:48;;;;;;;;;;;;;;;30.03;36.26;96379.50;5034781;28;1621;-85
2021/07/13 05:52:13;;;;;;;;;;;;;;;29.97;36.32;96380.22;5041976;28;1105;-85
2021/07/13 05:54:38;;;;;;;;;;;;;;;30.08;35.78;96385.13;5028405;28;1964;-86
2021/07/13 05:57:03;;;;;;;;;;;;;;;29.91;36.15;96386.22;5030457;28;1347;-86
2021/07/13 05:59:29;;;;;;;;;;;;;;;30.00;36.15;96388.66;5039420;28;1559;-86
2021/07/13 06:01:54;;;;;;;;;;;;;;;30.15;35.77;96377.28;5042965;28;1090;-86
2021/07/13 06:04:19;;;;;;;;;;;;;;;30.01;36.31;96376.19;5039398;28;1417;-86
2021/07/13 06:06:44;;;;;;;;;;;;;;;29.66;37.00;96382.91;5042316;28;1373;-85
2021/07/13 06:09:10;;;;;;;;;;;;;;;29.89;36.54;96380.25;5035140;28;1681;-85
2021/07/13 06:11:35;;;;;;;;;;;;;;;29.82;36.32;96382.78;5042992;28;1283;-83
2021/07/13 06:14:00;;;;;;;;;;;;;;;29.96;36.19;96381.22;5040989;28;1963;-84
2021/07/13 06:16:25;;;;;;;;;;;;;;;29.54;37.03;96387.75;5032113;28;1228;-84
2021/07/13 06:18:50;;;;;;;;;;;;;;;29.54;37.03;96378.97;5040978;28;1593;-86
2021/07/13 06:21:16;;;;;;;;;;;;;;;29.48;37.40;96389.28;5027765;28;1544;-84
2021/07/13 06:23:41;;;;;;;;;;;;;;;29.65;37.14;96390.03;5040742;28;1176;-84
2021/07/13 06:26:06;;;;;;;;;;;;;;;29.85;36.45;96387.75;5025263;28;1567;-84
2021/07/13 06:28:31;;;;;;;;;;;;;;;29.39;37.45;96384.19;5040889;28;1362;-84
2021/07/13 06:30:56;;;;;;;;;;;;;;;29.69;36.91;96377.22;5038490;28;1546;-84
2021/07/13 06:33:22;;;;;;;;;;;;;;;29.54;36.97;96371.81;5029447;28;1894;-84
2021/07/13 06:35:48;;;;;;;;;;;;;;;29.51;37.26;96374.84;5037090;28;1557;-84
2021/07/13 06:38:13;;;;;;;;;;;;;;;29.73;36.85;96373.22;5029564;28;1294;-84
2021/07/13 06:40:38;;;;;;;;;;;;;;;29.38;37.70;96363.91;5024581;28;1509;-84
2021/07/13 06:43:03;;;;;;;;;;;;;;;28.49;39.37;96365.84;5040116;28;1049;-84
2021/07/13 06:45:29;;;;;;;;;;;;;;;28.47;39.25;96362.53;5041648;28;1617;-85
2021/07/13 06:47:56;;;;;;;;;;;;;;;28.71;38.98;96363.47;5036008;28;1531;-85
2021/07/13 06:50:22;;;;;;;;;;;;;;;29.31;38.24;96369.13;5039601;28;1089;-86
2021/07/13 06:52:48;;;;;;;;;;;;;;;29.52;37.57;96379.16;5028216;28;1393;-86
2021/07/13 06:55:13;;;;;;;;;;;;;;;29.26;38.19;96373.28;5035073;28;1902;-86
2021/07/13 06:57:38;;;;;;;;;;;;;;;29.42;37.49;96376.69;5038128;28;1388;-86
2021/07/13 07:00:05;;;;;;;;;;;;;;;29.38;37.78;96374.53;5040751;28;1145;-85
2021/07/13 07:02:30;;;;;;;;;;;;;;;29.27;37.92;96378.41;5028816;28;1145;-85
2021/07/13 07:04:55;;;;;;;;;;;;;;;29.62;37.31;96381.59;5036389;28;1562;-85
2021/07/13 07:07:21;;;;;;;;;;;;;;;28.97;38.45;96369.41;5039069;28;1261;-85
2021/07/13 07:09:46;;;;;;;;;;;;;;;29.59;37.63;96377.47;5036324;28;1544;-85
2021/07/13 07:12:11;;;;;;;;;;;;;;;29.22;38.03;96364.00;5039662;28;1203;-85
2021/07/13 07:14:36;;;;;;;;;;;;;;;28.93;38.74;96365.44;5040029;28;1967;-84
2021/07/13 07:17:01;;;;;;;;;;;;;;;29.10;38.50;96356.41;5041381;28;1571;-84
2021/07/13 07:19:27;;;;;;;;;;;;;;;28.68;39.38;96355.88;5039379;28;1236;-86
2021/07/13 07:21:52;;;;;;;;;;;;;;;29.01;38.63;96351.31;5039717;28;1314;-85
2021/07/13 07:24:17;;;;;;;;;;;;;;;29.62;37.33;96345.22;5035089;28;1617;-85
2021/07/13 07:26:42;;;;;;;;;;;;;;;28.85;39.12;96346.88;5030143;28;1275;-85
2021/07/13 07:29:08;;;;;;;;;;;;;;;29.39;37.56;96350.50;5026943;28;1385;-85
2021/07/13 07:31:33;;;;;;;;;;;;;;;29.14;38.14;96335.66;5036528;28;1544;-85
2021/07/13 07:33:58;;;;;;;;;;;;;;;29.03;38.37;96336.03;5024281;28;2020;-85
2021/07/13 07:36:26;;;;;;;;;;;;;;;28.91;38.69;96330.28;5038911;28;1283;-85
2021/07/13 07:38:52;;;;;;;;;;;;;;;29.94;36.68;96335.34;5027639;28;1561;-85
2021/07/13 07:41:17;;;;;;;;;;;;;;;29.80;37.02;96336.16;5038580;28;1393;-85
2021/07/13 07:43:42;;;;;;;;;;;;;;;29.41;37.66;96340.50;5039616;28;1160;-85
2021/07/13 07:46:07;;;;;;;;;;;;;;;29.45;37.54;96339.13;5038440;28;1453;-86
2021/07/13 07:48:33;;;;;;;;;;;;;;;29.16;38.50;96337.16;5038795;28;1538;-85
2021/07/13 07:50:58;;;;;;;;;;;;;;;29.58;37.42;96332.47;5039144;28;1503;-85
2021/07/13 07:53:23;;;;;;;;;;;;;;;29.67;37.34;96326.91;5037095;28;1973;-85
2021/07/13 07:55:48;;;;;;;;;;;;;;;29.66;37.47;96319.97;5035192;28;1775;-85
2021/07/13 07:58:13;;;;;;;;;;;;;;;29.06;38.58;96319.75;5029305;28;1469;-85
2021/07/13 08:00:39;;;;;;;;;;;;;;;29.18;38.23;96318.38;5031065;28;1429;-85
2021/07/13 08:03:04;;;;;;;;;;;;;;;29.03;38.55;96320.94;5010535;28;1465;-85
2021/07/13 08:05:32;;;;;;;;;;;;;;;28.76;39.37;96316.88;5029781;28;1631;-86
2021/07/13 08:07:57;;;;;;;;;;;;;;;29.18;38.67;96323.69;5039516;28;1234;-85
2021/07/13 08:10:22;;;;;;;;;;;;;;;29.15;38.40;96329.34;4981695;28;1599;-85
2021/07/13 08:12:48;;;;;;;;;;;;;;;29.18;38.35;96316.56;5043366;28;1105;-86
2021/07/13 08:15:13;;;;;;;;;;;;;;;29.30;38.27;96316.16;5031480;28;1910;-85
2021/07/13 08:17:38;;;;;;;;;;;;;;;29.18;38.42;96321.88;5031893;28;1767;-85
2021/07/13 08:20:04;;;;;;;;;;;;;;;29.15;38.37;96305.44;5039459;28;1534;-85
2021/07/13 08:22:31;;;;;;;;;;;;;;;29.31;38.25;96312.50;5043816;28;1109;-85
2021/07/13 08:24:56;;;;;;;;;;;;;;;29.26;37.97;96321.00;5028019;28;1654;-86
2021/07/13 08:27:22;;;;;;;;;;;;;;;29.35;38.16;96327.09;5015538;28;1465;-85
2021/07/13 08:29:47;;;;;;;;;;;;;;;29.61;37.62;96329.44;5041896;28;1266;-85
2021/07/13 08:32:12;;;;;;;;;;;;;;;29.50;37.39;96328.03;5030656;28;1618;-85
2021/07/13 08:34:38;;;;;;;;;;;;;;;29.51;37.65;96329.69;5041220;28;1960;-85
2021/07/13 08:37:03;;;;;;;;;;;;;;;29.77;37.18;96324.03;5044530;28;1387;-85
2021/07/13 08:39:28;;;;;;;;;;;;;;;29.48;37.48;96332.66;5043522;28;1581;-85
2021/07/13 08:41:54;;;;;;;;;;;;;;;29.84;36.90;96332.94;5043268;28;1117;-85
2021/07/13 08:44:19;;;;;;;;;;;;;;;29.67;37.44;96339.38;5043555;28;1240;-85
2021/07/13 08:46:44;;;;;;;;;;;;;;;29.82;37.09;96345.59;5032002;28;1601;-85
2021/07/13 08:49:10;;;;;;;;;;;;;;;29.94;36.82;96354.81;5041253;28;1482;-85
2021/07/13 08:51:35;;;;;;;;;;;;;;;29.83;36.94;96352.56;5041607;28;1075;-86
2021/07/13 08:54:03;;;;;;;;;;;;;;;29.84;36.87;96353.38;5037709;28;1913;-85
2021/07/13 08:56:29;;;;;;;;;;;;;;;29.67;37.15;96357.97;5043843;28;1397;-85
2021/07/13 08:58:54;;;;;;;;;;;;;;;29.62;37.30;96366.47;5016593;28;1547;-85
2021/07/13 09:01:19;;;;;;;;;;;;;;;29.97;36.78;96369.56;5027851;28;1646;-85
2021/07/13 09:03:51;;;;;;;;;;;;;;;29.80;37.14;96376.00;5030566;28;1469;-86
2021/07/13 09:06:16;;;;;;;;;;;;;;;29.90;36.99;96368.63;5030001;28;1119;-85
2021/07/13 09:08:42;;;;;;;;;;;;;;;29.73;37.16;96376.72;5041173;28;1463;-85
2021/07/13 09:11:07;;;;;;;;;;;;;;;29.89;36.90;96378.44;5028969;28;1556;-85
2021/07/13 09:13:35;;;;;;;;;;;;;;;29.97;36.41;96382.88;5040685;28;1914;-85
2021/07/13 09:16:01;;;;;;;;;;;;;;;30.09;36.59;96396.59;5043233;28;1216;-85
2021/07/13 09:18:30;;;;;;;;;;;;;;;30.27;36.20;96384.66;5029806;28;1554;-85
2021/07/13 09:21:05;;;;;;;;;;;;;;;29.83;36.66;96388.94;5043185;28;1145;-86
2021/07/13 09:23:30;;;;;;;;;;;;;;;30.06;36.35;96388.94;5042132;28;1361;-86
2021/07/13 09:25:55;;;;;;;;;;;;;;;30.00;36.73;96386.00;5029250;28;1574;-85
2021/07/13 09:28:21;;;;;;;;;;;;;;;30.25;35.91;96384.00;5042377;28;1266;-85
2021/07/13 09:30:49;;;;;;;;;;;;;;;30.13;36.49;96381.94;5042783;28;1114;-85
2021/07/13 09:33:15;;;;;;;;;;;;;;;30.13;36.25;96385.44;5040730;28;1902;-85
2021/07/13 09:35:59;;;;;;;;;;;;;;;30.08;36.35;96387.78;5032169;28;1199;-85
2021/07/13 09:38:25;;;;;;;;;;;;;;;30.22;36.06;96379.03;5037424;28;1566;-85
2021/07/13 09:40:58;;;;;;;;;;;;;;;30.10;36.41;96385.81;5028702;28;1567;-85
2021/07/13 09:43:23;;;;;;;;;;;;;;;29.95;36.84;96390.19;5015807;28;1179;-85
2021/07/13 09:45:48;;;;;;;;;;;;;;;29.98;36.35;96379.19;5015999;28;1186;-86
2021/07/13 09:48:13;;;;;;;;;;;;;;;29.90;36.61;96379.25;5009738;28;1669;-85
2021/07/13 09:50:42;;;;;;;;;;;;;;;30.21;36.23;96366.75;5041679;28;1236;-85
2021/07/13 09:53:11;;;;;;;;;;;;;;;29.87;36.83;96377.78;5040531;28;1901;-85
2021/07/13 09:55:37;;;;;;;;;;;;;;;30.09;36.46;96386.78;5025030;28;1702;-84
2021/07/13 09:58:11;;;;;;;;;;;;;;;29.89;36.72;96393.56;5026534;28;1514;-85
2021/07/13 10:00:37;;;;;;;;;;;;;;;30.20;36.25;96391.69;5041573;28;1154;-85
2021/07/13 10:03:03;;;;;;;;;;;;;;;30.14;36.19;96392.41;5026610;28;1762;-85
2021/07/13 10:05:28;;;;;;;;;;;;;;;29.88;36.81;96398.06;5032538;28;1193;-85
2021/07/13 10:07:53;;;;;;;;;;;;;;;30.16;36.42;96398.38;5039141;28;1508;-85
2021/07/13 10:10:19;;;;;;;;;;;;;;;30.40;35.70;96401.84;5026348;28;1585;-85
2021/07/13 10:12:44;;;;;;;;;;;;;;;30.21;36.25;96401.31;5009073;28;1596;-85
2021/07/13 10:15:09;;;;;;;;;;;;;;;30.09;36.57;96393.94;5040589;28;1911;-85
2021/07/13 10:17:34;;;;;;;;;;;;;;;30.09;36.55;96401.91;5030526;28;1283;-85
2021/07/13 10:20:07;;;;;;;;;;;;;;;30.18;36.20;96401.69;5031492;28;1272;-85
2021/07/13 10:22:34;;;;;;;;;;;;;;;30.10;36.26;96390.25;5039859;28;1598;-85
2021/07/13 10:25:00;;;;;;;;;;;;;;;30.18;36.36;96379.59;5023044;28;1591;-85
2021/07/13 10:27:30;;;;;;;;;;;;;;;30.04;36.50;96381.16;5030887;28;1352;-85
2021/07/13 10:30:02;;;;;;;;;;;;;;;30.20;36.10;96375.75;5030376;28;1417;-85
2021/07/13 10:32:27;;;;;;;;;;;;;;;29.74;37.06;96364.25;5038819;28;1496;-85
2021/07/13 10:35:11;;;;;;;;;;;;;;;29.90;36.66;96371.28;5037819;28;1985;-85
2021/07/13 10:37:37;;;;;;;;;;;;;;;29.98;36.76;96368.56;5038589;28;1467;-85
2021/07/13 10:40:06;;;;;;;;;;;;;;;29.89;36.91;96361.66;5027241;28;1646;-85
2021/07/13 10:42:40;;;;;;;;;;;;;;;30.06;36.54;96357.03;5031280;28;1216;-85
2021/07/13 10:45:14;;;;;;;;;;;;;;;29.91;36.93;96364.97;5040615;28;1106;-85
2021/07/13 10:47:56;;;;;;;;;;;;;;;29.97;36.60;96358.94;5038194;28;1505;-85
2021/07/13 10:50:21;;;;;;;;;;;;;;;29.98;36.53;96355.28;5029956;28;1146;-85
2021/07/13 10:52:57;;;;;;;;;;;;;;;29.84;37.04;96350.72;5036919;28;1486;-85
2021/07/13 10:55:31;;;;;;;;;;;;;;;29.96;36.70;96351.97;5035599;28;1977;-85
2021/07/13 10:58:08;;;;;;;;;;;;;;;29.91;37.04;96365.78;5040038;28;1320;-85
2021/07/13 11:00:58;;;;;;;;;;;;;;;29.68;37.18;96365.78;5039512;28;1314;-85
2021/07/13 11:03:29;;;;;;;;;;;;;;;30.09;36.61;96364.69;5036171;28;1672;-85
2021/07/13 11:05:57;;;;;;;;;;;;;;;30.00;36.83;96378.00;5039362;28;1185;-85
2021/07/13 11:08:41;;;;;;;;;;;;;;;30.18;36.36;96374.28;5014041;28;1370;-85
2021/07/13 11:11:27;;;;;;;;;;;;;;;30.06;36.56;96376.47;5040148;28;1717;-85
2021/07/13 11:13:52;;;;;;;;;;;;;;;29.84;36.84;96390.59;5028442;28;1902;-85
2021/07/13 11:16:21;;;;;;;;;;;;;;;29.96;36.83;96384.69;5014220;28;1384;-85
2021/07/13 11:18:46;;;;;;;;;;;;;;;29.89;36.91;96389.06;5022232;28;1668;-86
2021/07/13 11:21:24;;;;;;;;;;;;;;;29.65;37.16;96390.03;5029972;28;1244;-85
2021/07/13 11:23:50;;;;;;;;;;;;;;;29.92;36.86;96393.19;5008262;28;1622;-85
2021/07/13 11:26:16;;;;;;;;;;;;;;;29.92;36.71;96393.19;5040335;28;1089;-86
2021/07/13 11:28:44;;;;;;;;;;;;;;;30.01;36.76;96392.13;5037132;28;1641;-85
2021/07/13 11:31:09;;;;;;;;;;;;;;;29.77;37.37;96401.09;5031439;28;1229;-85
2021/07/13 11:33:34;;;;;;;;;;;;;;;29.85;36.95;96414.31;5038900;28;1973;-85
2021/07/13 11:36:00;;;;;;;;;;;;;;;30.13;36.63;96405.88;5040293;28;1101;-85
2021/07/13 11:38:30;;;;;;;;;;;;;;;29.88;36.76;96402.53;5037624;28;1729;-87
2021/07/13 11:41:19;;;;;;;;;;;;;;;30.09;36.82;96410.72;5018852;28;1595;-86
2021/07/13 11:43:45;;;;;;;;;;;;;;;29.83;37.21;96420.84;5024665;28;1226;-87
2021/07/13 11:46:14;;;;;;;;;;;;;;;29.68;37.33;96415.44;5012190;28;1242;-87
2021/07/13 11:48:40;;;;;;;;;;;;;;;30.12;36.48;96414.88;5026033;28;1398;-87
2021/07/13 11:51:07;;;;;;;;;;;;;;;29.80;37.11;96421.19;5023519;28;1559;-87
2021/07/13 11:53:33;;;;;;;;;;;;;;;29.71;37.44;96423.91;5037704;28;1910;-87
2021/07/13 11:55:59;;;;;;;;;;;;;;;30.10;36.59;96433.66;5034424;28;1563;-87
2021/07/13 11:58:25;;;;;;;;;;;;;;;29.69;37.45;96446.31;5027836;28;1225;-87
2021/07/13 12:00:50;;;;;;;;;;;;;;;30.00;36.76;96455.09;5036502;28;1515;-87
2021/07/13 12:03:25;;;;;;;;;;;;;;;29.87;37.00;96449.56;5008819;28;1530;-87
2021/07/13 12:06:07;;;;;;;;;;;;;;;29.97;36.77;96452.81;5026188;28;1039;-87
2021/07/13 12:08:32;;;;;;;;;;;;;;;30.12;36.52;96450.25;5028409;28;1430;-88
2021/07/13 12:10:58;;;;;;;;;;;;;;;29.87;37.05;96462.84;5024559;28;1544;-87
2021/07/13 12:13:23;;;;;;;;;;;;;;;29.97;36.82;96467.94;5038812;28;1981;-86
2021/07/13 12:15:48;;;;;;;;;;;;;;;30.11;36.73;96474.38;5040311;28;1038;-86
2021/07/13 12:18:13;;;;;;;;;;;;;;;29.79;37.02;96476.19;5039011;28;1618;-87
2021/07/13 12:20:38;;;;;;;;;;;;;;;30.01;36.86;96479.84;5034371;28;1243;-87
2021/07/13 12:23:04;;;;;;;;;;;;;;;29.99;36.65;96474.72;5051962;28;1509;-88
2021/07/13 12:25:29;;;;;;;;;;;;;;;29.83;37.19;96482.78;5045600;28;1563;-87
2021/07/13 12:28:07;;;;;;;;;;;;;;;29.73;37.39;96475.03;5039224;28;1292;-87
2021/07/13 12:30:33;;;;;;;;;;;;;;;29.82;37.41;96483.78;5038436;28;1441;-87
2021/07/13 12:33:02;;;;;;;;;;;;;;;29.99;36.88;96481.88;5039948;28;1184;-86
2021/07/13 12:35:27;;;;;;;;;;;;;;;30.01;36.94;96482.53;5037577;28;1997;-87
2021/07/13 12:37:53;;;;;;;;;;;;;;;29.58;37.71;96479.41;5040502;28;1490;-87
2021/07/13 12:40:18;;;;;;;;;;;;;;;29.84;37.27;96486.28;5025591;28;1639;-87
2021/07/13 12:42:46;;;;;;;;;;;;;;;29.85;37.33;96478.13;5012659;28;1451;-87
2021/07/13 12:45:15;;;;;;;;;;;;;;;29.92;37.18;96480.91;5042689;28;1176;-87
2021/07/13 12:47:40;;;;;;;;;;;;;;;29.70;37.52;96479.84;5036777;28;1569;-87
2021/07/13 12:50:12;;;;;;;;;;;;;;;29.80;37.21;96492.97;5030900;28;1369;-86
2021/07/13 12:52:41;;;;;;;;;;;;;;;29.84;37.03;96491.59;5014022;28;1307;-86
2021/07/13 12:55:07;;;;;;;;;;;;;;;30.06;36.90;96503.28;5042211;28;1906;-87